Terminal Aerodrome Forecast
Issued by NWS Wakefield, VA

Home | Current Version | Previous Version | Text Only | Print | Product List | Glossary On
Versions: 1 2 3 4 5 6 7 8 9 10 11 12 13 14
000
FTUS41 KAKQ 010531
TAFORF
TAF
KORF 010531Z 0106/0206 VRB03KT P6SM OVC025
      TEMPO 0108/0112 4SM BR OVC015
     FM011400 03005KT P6SM BKN050
     FM012200 18003KT P6SM SKC=

USA.gov is the U.S. government's official web portal to all federal, state and local government web resources and services.